createdAt,value
2019-06-26T00:01:11.914Z,22.34
2019-06-26T00:03:38.106Z,22.31
2019-06-26T00:06:04.084Z,22.28
2019-06-26T00:08:30.321Z,22.20
2019-06-26T00:10:56.786Z,22.18
2019-06-26T00:13:26.629Z,22.13
2019-06-26T00:15:50.520Z,22.09
2019-06-26T00:18:16.352Z,22.10
2019-06-26T00:20:42.695Z,22.05
2019-06-26T00:23:08.552Z,22.04
2019-06-26T00:25:34.431Z,22.01
2019-06-26T00:28:00.297Z,21.95
2019-06-26T00:30:26.397Z,21.93
2019-06-26T00:32:52.252Z,21.96
2019-06-26T00:35:18.132Z,21.94
2019-06-26T00:37:43.991Z,21.95
2019-06-26T00:40:10.481Z,21.95
2019-06-26T00:42:36.331Z,21.91
2019-06-26T00:45:04.622Z,21.89
2019-06-26T00:47:30.480Z,21.86
2019-06-26T00:49:56.343Z,21.80
2019-06-26T00:52:22.247Z,21.73
2019-06-26T00:54:48.084Z,21.70
2019-06-26T00:57:13.977Z,21.68
2019-06-26T00:59:39.854Z,21.68
2019-06-26T01:02:05.720Z,21.67
2019-06-26T01:04:36.045Z,21.70
2019-06-26T01:07:01.932Z,21.70
2019-06-26T01:09:27.791Z,21.69
2019-06-26T01:11:53.681Z,21.65
2019-06-26T01:14:19.541Z,21.61
2019-06-26T01:16:45.447Z,21.58
2019-06-26T01:19:11.311Z,21.56
2019-06-26T01:21:37.223Z,21.54
2019-06-26T01:24:03.603Z,21.52
2019-06-26T01:26:29.489Z,21.51
2019-06-26T01:28:55.351Z,21.49
2019-06-26T01:31:21.234Z,21.48
2019-06-26T01:33:47.394Z,21.47
2019-06-26T01:36:13.288Z,21.45
2019-06-26T01:38:39.144Z,21.45
2019-06-26T01:41:05.002Z,21.42
2019-06-26T01:43:30.888Z,21.43
2019-06-26T01:45:56.743Z,21.42
2019-06-26T01:48:22.625Z,21.41
2019-06-26T01:50:48.480Z,21.39
2019-06-26T01:53:14.359Z,21.35
2019-06-26T01:55:40.220Z,21.30
2019-06-26T01:58:06.102Z,21.28
2019-06-26T02:00:31.994Z,21.27
2019-06-26T02:02:57.843Z,21.24
2019-06-26T02:05:23.707Z,21.21
2019-06-26T02:07:49.595Z,21.20
2019-06-26T02:10:15.689Z,21.17
2019-06-26T02:12:41.670Z,21.14
2019-06-26T02:15:08.501Z,21.11
2019-06-26T02:17:34.415Z,21.08
2019-06-26T02:20:00.280Z,21.08
2019-06-26T02:22:26.166Z,21.05
2019-06-26T02:24:52.027Z,21.02
2019-06-26T02:27:17.908Z,20.99
2019-06-26T02:29:43.767Z,20.97
2019-06-26T02:32:09.627Z,20.95
2019-06-26T02:34:35.519Z,20.95
2019-06-26T02:37:01.386Z,20.94
2019-06-26T02:39:27.295Z,20.93
2019-06-26T02:41:53.231Z,20.90
2019-06-26T02:44:19.125Z,20.88
2019-06-26T02:46:44.989Z,20.86
2019-06-26T02:49:10.871Z,20.85
2019-06-26T02:51:36.733Z,20.84
2019-06-26T02:54:03.118Z,20.83
2019-06-26T02:56:28.982Z,20.82
2019-06-26T02:58:54.869Z,20.82
2019-06-26T03:01:20.729Z,20.82
2019-06-26T03:03:46.611Z,20.84
2019-06-26T03:06:12.468Z,20.84
2019-06-26T03:08:38.851Z,20.85
2019-06-26T03:11:04.728Z,20.84
2019-06-26T03:13:30.608Z,20.85
2019-06-26T03:15:56.525Z,20.85
2019-06-26T03:18:22.415Z,20.87
2019-06-26T03:20:52.067Z,20.89
2019-06-26T03:23:17.960Z,20.92
2019-06-26T03:25:43.812Z,20.94
2019-06-26T03:28:09.680Z,20.95
2019-06-26T03:30:35.567Z,20.98
2019-06-26T03:33:01.466Z,21.01
2019-06-26T03:35:27.416Z,21.03
2019-06-26T03:37:53.264Z,21.05
2019-06-26T03:40:19.754Z,21.08
2019-06-26T03:42:45.615Z,21.11
2019-06-26T03:45:25.237Z,21.17
2019-06-26T03:47:39.489Z,21.19
2019-06-26T03:50:05.883Z,21.26
2019-06-26T03:52:31.740Z,21.30
2019-06-26T03:54:57.646Z,21.35
2019-06-26T03:57:23.580Z,21.39
2019-06-26T03:59:49.599Z,21.43
2019-06-26T04:02:15.443Z,21.48
2019-06-26T04:04:41.327Z,21.60
2019-06-26T04:07:07.201Z,21.70
2019-06-26T04:09:33.183Z,21.78
2019-06-26T04:11:59.060Z,21.85
2019-06-26T04:14:24.923Z,21.91
2019-06-26T04:16:50.812Z,21.96
2019-06-26T04:19:16.691Z,22.03
2019-06-26T04:21:42.626Z,22.09
2019-06-26T04:24:08.603Z,22.15
2019-06-26T04:26:34.457Z,22.21
2019-06-26T04:29:00.307Z,22.27
2019-06-26T04:31:26.196Z,22.32
2019-06-26T04:33:52.054Z,22.40
2019-06-26T04:36:18.030Z,22.49
2019-06-26T04:38:43.890Z,22.60
2019-06-26T04:41:09.767Z,22.71
2019-06-26T04:43:35.622Z,22.80
2019-06-26T04:46:01.524Z,22.91
2019-06-26T04:48:27.362Z,23.03
2019-06-26T04:50:53.248Z,23.19
2019-06-26T04:53:19.099Z,23.31
2019-06-26T04:55:44.986Z,23.35
2019-06-26T04:58:10.838Z,23.40
2019-06-26T05:00:36.718Z,23.43
2019-06-26T05:03:02.575Z,23.42
2019-06-26T05:05:38.943Z,23.42
2019-06-26T05:07:56.209Z,23.44
2019-06-26T05:10:22.724Z,23.48
2019-06-26T05:12:48.597Z,23.44
2019-06-26T05:15:15.566Z,23.52
2019-06-26T05:17:41.447Z,23.58
2019-06-26T05:20:07.835Z,23.65
2019-06-26T05:22:33.691Z,23.76
2019-06-26T05:24:59.548Z,23.80
2019-06-26T05:27:25.434Z,23.92
2019-06-26T05:29:54.304Z,23.98
2019-06-26T05:32:19.076Z,24.09
2019-06-26T05:34:44.931Z,24.19
2019-06-26T05:37:10.810Z,24.26
2019-06-26T05:39:36.671Z,24.36
2019-06-26T05:42:05.749Z,24.38
2019-06-26T05:44:30.343Z,24.46
2019-06-26T05:46:56.229Z,24.54
2019-06-26T05:49:22.080Z,24.67
2019-06-26T05:51:48.064Z,24.81
2019-06-26T05:54:13.921Z,24.87
2019-06-26T05:56:39.803Z,24.90
2019-06-26T05:59:05.656Z,24.92
2019-06-26T06:01:31.539Z,24.88
2019-06-26T06:03:57.399Z,24.91
2019-06-26T06:06:23.379Z,24.96
2019-06-26T06:08:49.256Z,25.06
2019-06-26T06:11:15.127Z,25.20
2019-06-26T06:13:40.983Z,25.25
2019-06-26T06:16:06.863Z,25.34
2019-06-26T06:18:33.650Z,25.44
2019-06-26T06:21:00.093Z,25.42
2019-06-26T06:23:26.068Z,25.54
2019-06-26T06:25:52.061Z,25.59
2019-06-26T06:28:18.407Z,25.73
2019-06-26T06:30:44.269Z,25.82
2019-06-26T06:33:10.161Z,25.97
2019-06-26T06:35:36.015Z,26.04
2019-06-26T06:38:01.896Z,26.07
2019-06-26T06:40:27.746Z,26.11
2019-06-26T06:42:53.737Z,26.10
2019-06-26T06:45:20.144Z,26.18
2019-06-26T06:47:46.079Z,26.08
2019-06-26T06:50:12.043Z,26.30
2019-06-26T06:52:38.162Z,26.37
2019-06-26T06:55:05.116Z,26.28
2019-06-26T06:57:31.004Z,26.72
2019-06-26T06:59:56.860Z,26.88
2019-06-26T07:02:22.744Z,26.99
2019-06-26T07:04:48.630Z,26.98
2019-06-26T07:07:14.490Z,27.03
2019-06-26T07:09:40.477Z,26.97
2019-06-26T07:12:06.330Z,27.24
2019-06-26T07:14:32.183Z,27.36
2019-06-26T07:17:01.346Z,27.22
2019-06-26T07:19:25.864Z,27.51
2019-06-26T07:21:51.722Z,27.84
2019-06-26T07:24:17.594Z,28.11
2019-06-26T07:26:43.451Z,28.55
2019-06-26T07:29:09.330Z,28.75
2019-06-26T07:31:38.362Z,28.87
2019-06-26T07:34:02.972Z,28.86
2019-06-26T07:36:28.827Z,29.23
2019-06-26T07:38:54.714Z,29.20
2019-06-26T07:41:20.573Z,29.57
2019-06-26T07:43:46.453Z,29.88
2019-06-26T07:46:12.320Z,30.11
2019-06-26T07:48:38.196Z,30.21
2019-06-26T07:51:04.119Z,30.36
2019-06-26T07:53:30.181Z,30.21
2019-06-26T07:55:56.804Z,30.11
2019-06-26T07:58:23.030Z,30.06
2019-06-26T08:00:49.439Z,30.36
2019-06-26T08:03:16.074Z,30.57
2019-06-26T08:05:43.249Z,30.59
2019-06-26T08:08:09.383Z,30.67
2019-06-26T08:10:35.497Z,30.74
2019-06-26T08:13:02.210Z,30.55
2019-06-26T08:15:28.668Z,30.19
2019-06-26T08:18:00.668Z,30.29
2019-06-26T08:20:22.453Z,30.49
2019-06-26T08:22:48.317Z,30.80
2019-06-26T08:25:14.399Z,30.70
2019-06-26T08:27:40.250Z,30.44
2019-06-26T08:30:07.143Z,30.55
2019-06-26T08:32:33.004Z,30.87
2019-06-26T08:34:58.888Z,30.70
2019-06-26T08:37:24.751Z,30.50
2019-06-26T08:39:50.675Z,30.60
2019-06-26T08:42:16.589Z,30.78
2019-06-26T08:44:42.479Z,31.01
2019-06-26T08:47:08.342Z,31.38
2019-06-26T08:49:34.253Z,30.96
2019-06-26T08:52:00.211Z,30.82
2019-06-26T08:54:26.159Z,31.15
2019-06-26T08:56:52.022Z,31.01
2019-06-26T08:59:18.002Z,30.89
2019-06-26T09:01:43.862Z,31.02
2019-06-26T09:04:09.750Z,31.04
2019-06-26T09:06:35.609Z,30.88
2019-06-26T09:09:01.503Z,30.76
2019-06-26T09:11:27.391Z,30.90
2019-06-26T09:13:53.218Z,30.72
2019-06-26T09:16:19.124Z,30.76
2019-06-26T09:18:44.991Z,30.90
2019-06-26T09:21:10.989Z,30.65
2019-06-26T09:23:36.951Z,30.73
2019-06-26T09:26:02.963Z,30.76
2019-06-26T09:28:28.893Z,30.86
2019-06-26T09:30:54.776Z,30.59
2019-06-26T09:33:20.635Z,30.43
2019-06-26T09:35:46.521Z,30.42
2019-06-26T09:38:12.394Z,30.54
2019-06-26T09:40:38.285Z,30.35
2019-06-26T09:43:04.127Z,30.29
2019-06-26T09:45:30.010Z,30.47
2019-06-26T09:47:55.861Z,30.94
2019-06-26T09:50:21.842Z,31.12
2019-06-26T09:52:47.703Z,30.71
2019-06-26T09:55:13.802Z,30.11
2019-06-26T09:57:39.747Z,29.75
2019-06-26T10:00:11.618Z,30.00
2019-06-26T10:02:37.511Z,30.53
2019-06-26T10:05:07.590Z,30.46
2019-06-26T10:07:33.439Z,30.83
2019-06-26T10:09:59.302Z,30.97
2019-06-26T10:12:25.183Z,30.44
2019-06-26T10:14:51.043Z,30.52
2019-06-26T10:17:16.956Z,30.52
2019-06-26T10:19:42.811Z,30.67
2019-06-26T10:22:08.695Z,30.67
2019-06-26T10:24:34.549Z,30.67
2019-06-26T10:27:00.509Z,30.54
2019-06-26T10:29:26.401Z,30.37
2019-06-26T10:31:52.389Z,30.20
2019-06-26T10:34:18.305Z,30.18
2019-06-26T10:36:44.187Z,29.98
2019-06-26T10:39:10.054Z,30.66
2019-06-26T10:41:35.932Z,30.58
2019-06-26T10:44:01.788Z,30.69
2019-06-26T10:46:27.670Z,30.53
2019-06-26T10:48:53.634Z,30.06
2019-06-26T10:51:19.523Z,30.21
2019-06-26T10:53:45.382Z,30.05
2019-06-26T10:56:11.263Z,29.84
2019-06-26T10:58:37.118Z,30.31
2019-06-26T11:01:03.099Z,30.02
2019-06-26T11:03:28.963Z,29.95
2019-06-26T11:05:54.816Z,30.18
2019-06-26T11:08:20.701Z,29.78
2019-06-26T11:10:46.688Z,29.84
2019-06-26T11:13:12.647Z,30.18
2019-06-26T11:15:38.518Z,30.45
2019-06-26T11:18:04.618Z,30.29
2019-06-26T11:20:30.473Z,30.14
2019-06-26T11:22:56.358Z,29.83
2019-06-26T11:25:22.221Z,29.63
2019-06-26T11:27:48.198Z,30.07
2019-06-26T11:30:14.755Z,29.95
2019-06-26T11:32:40.644Z,30.12
2019-06-26T11:35:06.901Z,30.33
2019-06-26T11:37:32.778Z,30.28
2019-06-26T11:39:58.638Z,29.90
2019-06-26T11:42:24.514Z,29.29
2019-06-26T11:44:50.371Z,29.41
2019-06-26T11:47:16.266Z,29.76
2019-06-26T11:49:42.221Z,30.04
2019-06-26T11:52:08.295Z,29.82
2019-06-26T11:54:34.147Z,30.20
2019-06-26T11:57:00.037Z,29.91
2019-06-26T11:59:25.891Z,29.85
2019-06-26T12:01:51.750Z,29.74
2019-06-26T12:04:17.630Z,29.90
2019-06-26T12:06:45.889Z,30.11
2019-06-26T12:09:11.271Z,30.71
2019-06-26T12:11:37.128Z,30.45
2019-06-26T12:14:03.225Z,29.75
2019-06-26T12:16:29.131Z,29.71
2019-06-26T12:18:55.023Z,29.50
2019-06-26T12:21:21.171Z,29.69
2019-06-26T12:23:47.159Z,29.62
2019-06-26T12:26:13.011Z,29.71
2019-06-26T12:28:38.904Z,29.87
2019-06-26T12:31:04.759Z,29.52
2019-06-26T12:33:30.644Z,29.75
2019-06-26T12:35:56.504Z,29.67
2019-06-26T12:38:22.381Z,28.93
2019-06-26T12:40:48.233Z,29.14
2019-06-26T12:43:14.131Z,28.72
2019-06-26T12:45:39.984Z,29.06
2019-06-26T12:48:05.998Z,29.48
2019-06-26T12:50:36.001Z,29.24
2019-06-26T12:52:59.629Z,28.92
2019-06-26T12:55:25.573Z,28.83
2019-06-26T12:57:51.633Z,28.86
2019-06-26T13:00:17.761Z,29.15
2019-06-26T13:02:43.618Z,28.61
2019-06-26T13:05:11.598Z,28.62
2019-06-26T13:07:37.571Z,28.69
2019-06-26T13:10:07.547Z,28.92
2019-06-26T13:12:33.111Z,28.71
2019-06-26T13:14:59.000Z,28.39
2019-06-26T13:17:24.882Z,28.48
2019-06-26T13:19:50.770Z,28.89
2019-06-26T13:22:16.630Z,28.16
2019-06-26T13:24:44.138Z,28.67
2019-06-26T13:27:10.272Z,28.41
2019-06-26T13:29:36.148Z,28.94
2019-06-26T13:32:02.000Z,28.47
2019-06-26T13:34:27.888Z,28.25
2019-06-26T13:36:53.744Z,28.72
2019-06-26T13:39:19.626Z,28.23
2019-06-26T13:41:45.484Z,28.24
2019-06-26T13:44:11.461Z,27.81
2019-06-26T13:46:37.326Z,27.87
2019-06-26T13:49:03.201Z,27.73
2019-06-26T13:51:29.050Z,27.83
2019-06-26T13:53:54.932Z,28.17
2019-06-26T13:56:20.814Z,27.82
2019-06-26T13:58:46.673Z,27.95
2019-06-26T14:01:12.552Z,27.74
2019-06-26T14:03:38.410Z,28.01
2019-06-26T14:06:04.392Z,28.47
2019-06-26T14:08:32.786Z,28.44
2019-06-26T14:10:58.042Z,28.15
2019-06-26T14:13:23.899Z,27.83
2019-06-26T14:15:49.800Z,27.79
2019-06-26T14:18:15.683Z,27.79
2019-06-26T14:20:41.567Z,27.03
2019-06-26T14:23:07.429Z,26.95
2019-06-26T14:25:35.412Z,27.11
2019-06-26T14:28:01.302Z,27.12
2019-06-26T14:30:28.071Z,26.63
2019-06-26T14:32:54.134Z,26.32
2019-06-26T14:35:20.040Z,26.12
2019-06-26T14:37:45.911Z,26.12
2019-06-26T14:40:12.300Z,26.08
2019-06-26T14:42:38.261Z,26.10
2019-06-26T14:45:07.511Z,26.02
2019-06-26T14:47:35.681Z,25.99
2019-06-26T14:50:02.856Z,25.61
2019-06-26T14:52:28.713Z,25.70
2019-06-26T14:54:54.584Z,25.41
2019-06-26T14:57:20.472Z,25.45
2019-06-26T14:59:46.330Z,25.61
2019-06-26T15:02:12.216Z,25.46
2019-06-26T15:04:38.109Z,25.41
2019-06-26T15:07:03.995Z,25.56
2019-06-26T15:09:29.872Z,25.37
2019-06-26T15:11:55.832Z,25.11
2019-06-26T15:14:21.848Z,24.94
2019-06-26T15:16:47.885Z,24.84
2019-06-26T15:19:13.735Z,24.43
2019-06-26T15:21:39.615Z,24.28
2019-06-26T15:24:05.478Z,24.14
2019-06-26T15:26:31.386Z,24.01
2019-06-26T15:28:57.227Z,23.92
2019-06-26T15:31:23.112Z,23.59
2019-06-26T15:33:48.964Z,23.45
2019-06-26T15:36:14.851Z,23.54
2019-06-26T15:38:40.714Z,23.60
2019-06-26T15:41:06.607Z,23.20
2019-06-26T15:43:32.480Z,23.14
2019-06-26T15:45:59.470Z,23.09
2019-06-26T15:48:25.435Z,23.13
2019-06-26T15:50:51.289Z,23.18
2019-06-26T15:53:17.401Z,22.74
2019-06-26T15:55:43.352Z,22.61
2019-06-26T15:58:09.386Z,22.44
2019-06-26T16:00:35.298Z,22.54
2019-06-26T16:03:01.191Z,22.49
2019-06-26T16:05:27.049Z,22.62
2019-06-26T16:07:52.938Z,22.30
2019-06-26T16:10:18.892Z,21.90
2019-06-26T16:12:44.779Z,21.73
2019-06-26T16:15:11.240Z,21.55
2019-06-26T16:17:41.831Z,21.30
2019-06-26T16:20:07.804Z,21.43
2019-06-26T16:22:33.681Z,21.34
2019-06-26T16:24:59.567Z,21.25
2019-06-26T16:27:25.446Z,21.12
2019-06-26T16:29:51.311Z,21.17
2019-06-26T16:32:17.204Z,21.09
2019-06-26T16:34:43.069Z,21.02
2019-06-26T16:37:08.969Z,21.12
2019-06-26T16:39:34.909Z,21.35
2019-06-26T16:42:00.797Z,21.34
2019-06-26T16:44:26.659Z,21.38
2019-06-26T16:46:52.522Z,21.16
2019-06-26T16:49:18.410Z,20.93
2019-06-26T16:51:44.281Z,20.79
2019-06-26T16:54:10.166Z,20.62
2019-06-26T16:56:36.023Z,20.53
2019-06-26T16:59:01.912Z,20.51
2019-06-26T17:01:27.780Z,20.34
2019-06-26T17:03:53.659Z,20.31
2019-06-26T17:06:19.527Z,20.26
2019-06-26T17:08:45.423Z,20.01
2019-06-26T17:11:11.285Z,19.91
2019-06-26T17:13:37.182Z,20.07
2019-06-26T17:16:03.372Z,20.00
2019-06-26T17:18:29.481Z,19.82
2019-06-26T17:20:55.452Z,19.74
2019-06-26T17:23:21.335Z,19.78
2019-06-26T17:25:47.192Z,19.81
2019-06-26T17:28:13.083Z,19.57
2019-06-26T17:30:38.942Z,19.30
2019-06-26T17:33:04.830Z,19.35
2019-06-26T17:35:30.703Z,19.34
2019-06-26T17:37:56.592Z,19.23
2019-06-26T17:40:22.455Z,19.19
2019-06-26T17:42:48.314Z,19.16
2019-06-26T17:45:14.401Z,18.96
2019-06-26T17:47:40.317Z,18.99
2019-06-26T17:50:06.753Z,18.90
2019-06-26T17:52:35.599Z,18.94
2019-06-26T17:55:00.400Z,18.89
2019-06-26T17:57:26.269Z,18.65
2019-06-26T17:59:52.157Z,18.68
2019-06-26T18:02:18.117Z,18.68
2019-06-26T18:04:44.005Z,18.58
2019-06-26T18:07:09.863Z,18.55
2019-06-26T18:09:35.761Z,18.42
2019-06-26T18:12:01.767Z,18.53
2019-06-26T18:14:27.652Z,18.65
2019-06-26T18:16:53.547Z,18.62
2019-06-26T18:19:19.438Z,18.41
2019-06-26T18:21:45.321Z,18.35
2019-06-26T18:24:11.206Z,18.55
2019-06-26T18:26:37.069Z,18.34
2019-06-26T18:29:02.995Z,18.41
2019-06-26T18:31:30.634Z,18.35
2019-06-26T18:33:56.592Z,18.19
2019-06-26T18:36:23.206Z,18.12
2019-06-26T18:38:49.069Z,18.25
2019-06-26T18:41:18.473Z,18.23
2019-06-26T18:43:42.716Z,18.28
2019-06-26T18:46:08.615Z,18.20
2019-06-26T18:48:34.521Z,18.22
2019-06-26T18:51:00.422Z,18.27
2019-06-26T18:53:26.299Z,18.23
2019-06-26T18:55:52.174Z,18.16
2019-06-26T18:58:18.335Z,18.09
2019-06-26T19:00:44.232Z,18.02
2019-06-26T19:03:10.096Z,18.02
2019-06-26T19:05:35.972Z,18.05
2019-06-26T19:08:01.843Z,18.00
2019-06-26T19:10:27.756Z,17.86
2019-06-26T19:12:53.612Z,17.85
2019-06-26T19:15:19.510Z,17.69
2019-06-26T19:17:45.412Z,17.60
2019-06-26T19:20:11.696Z,17.53
2019-06-26T19:22:37.563Z,17.51
2019-06-26T19:25:04.949Z,17.48
2019-06-26T19:27:30.811Z,17.59
2019-06-26T19:29:56.730Z,17.40
2019-06-26T19:32:22.642Z,17.41
2019-06-26T19:34:48.499Z,17.46
2019-06-26T19:37:14.390Z,17.60
2019-06-26T19:39:40.318Z,17.29
2019-06-26T19:42:06.213Z,17.27
2019-06-26T19:44:32.951Z,17.19
2019-06-26T19:46:59.807Z,17.17
2019-06-26T19:49:29.699Z,17.22
2019-06-26T19:51:55.844Z,17.26
2019-06-26T19:54:27.217Z,17.22
2019-06-26T19:56:50.141Z,17.17
2019-06-26T19:59:16.887Z,17.17
2019-06-26T20:01:43.257Z,17.15
2019-06-26T20:04:09.124Z,17.10
2019-06-26T20:06:35.143Z,17.11
2019-06-26T20:09:01.010Z,17.03
2019-06-26T20:11:26.887Z,16.97
2019-06-26T20:13:52.749Z,16.83
2019-06-26T20:16:18.771Z,16.86
2019-06-26T20:18:44.928Z,16.85
2019-06-26T20:21:10.819Z,16.83
2019-06-26T20:23:36.685Z,16.85
2019-06-26T20:26:02.552Z,16.79
2019-06-26T20:28:28.459Z,16.68
2019-06-26T20:30:54.815Z,16.74
2019-06-26T20:33:21.247Z,16.64
2019-06-26T20:35:47.568Z,16.76
2019-06-26T20:38:13.898Z,16.84
2019-06-26T20:40:39.747Z,16.87
2019-06-26T20:43:05.635Z,16.76
2019-06-26T20:45:32.157Z,16.68
2019-06-26T20:47:58.043Z,16.61
2019-06-26T20:50:24.243Z,16.45
2019-06-26T20:52:50.134Z,16.50
2019-06-26T20:55:16.005Z,16.47
2019-06-26T20:57:41.986Z,16.43
2019-06-26T21:00:08.834Z,16.44
2019-06-26T21:02:35.052Z,16.51
2019-06-26T21:05:01.010Z,16.42
2019-06-26T21:07:27.019Z,16.42
2019-06-26T21:09:52.880Z,16.36
2019-06-26T21:12:18.816Z,16.43
2019-06-26T21:14:44.771Z,16.49
2019-06-26T21:17:10.685Z,16.53
2019-06-26T21:19:36.555Z,16.51
2019-06-26T21:22:02.412Z,16.43
2019-06-26T21:24:28.320Z,16.40
2019-06-26T21:26:54.590Z,16.30
2019-06-26T21:29:21.229Z,16.21
2019-06-26T21:31:47.090Z,16.16
2019-06-26T21:34:12.982Z,16.01
2019-06-26T21:36:39.325Z,16.01
2019-06-26T21:39:05.954Z,16.03
2019-06-26T21:41:31.983Z,16.07
2019-06-26T21:43:57.875Z,16.06
2019-06-26T21:46:23.736Z,15.99
2019-06-26T21:48:49.625Z,15.99
2019-06-26T21:51:15.540Z,16.03
2019-06-26T21:53:41.432Z,16.02
2019-06-26T21:56:07.298Z,15.91
2019-06-26T21:58:33.184Z,15.93
2019-06-26T22:00:59.163Z,15.95
2019-06-26T22:03:25.074Z,15.91
2019-06-26T22:05:51.003Z,15.83
2019-06-26T22:08:16.940Z,15.85
2019-06-26T22:10:42.961Z,15.64
2019-06-26T22:13:09.000Z,15.63
2019-06-26T22:15:34.877Z,15.49
2019-06-26T22:18:00.827Z,15.47
2019-06-26T22:20:26.710Z,15.36
2019-06-26T22:22:52.574Z,15.31
2019-06-26T22:25:18.569Z,15.28
2019-06-26T22:27:44.431Z,15.31
2019-06-26T22:30:10.917Z,15.30
2019-06-26T22:32:36.772Z,15.27
2019-06-26T22:35:04.356Z,15.18
2019-06-26T22:37:30.346Z,15.03
2019-06-26T22:39:56.228Z,15.05
2019-06-26T22:42:22.471Z,15.13
2019-06-26T22:44:48.347Z,15.09
2019-06-26T22:47:14.231Z,15.09
2019-06-26T22:49:40.123Z,15.06
2019-06-26T22:52:05.988Z,15.15
2019-06-26T22:54:31.890Z,15.02
2019-06-26T22:56:57.747Z,15.05
2019-06-26T22:59:23.731Z,15.02
2019-06-26T23:01:49.598Z,15.03
2019-06-26T23:04:15.571Z,15.09
2019-06-26T23:06:41.450Z,15.06
2019-06-26T23:09:07.310Z,15.04
2019-06-26T23:11:33.201Z,14.96
2019-06-26T23:13:59.076Z,15.03
2019-06-26T23:16:24.961Z,15.03
2019-06-26T23:18:50.857Z,14.98
2019-06-26T23:21:16.825Z,14.95
2019-06-26T23:23:42.688Z,14.98
2019-06-26T23:26:23.010Z,15.01
2019-06-26T23:28:36.393Z,14.99
2019-06-26T23:31:02.289Z,15.04
2019-06-26T23:33:28.239Z,14.96
2019-06-26T23:35:54.135Z,14.85
2019-06-26T23:38:20.522Z,14.79
2019-06-26T23:40:46.409Z,14.69
2019-06-26T23:43:12.281Z,14.62
2019-06-26T23:45:38.173Z,14.65
2019-06-26T23:48:04.030Z,14.45
2019-06-26T23:50:29.926Z,14.26
2019-06-26T23:52:55.790Z,14.20
2019-06-26T23:55:21.679Z,14.07
2019-06-26T23:57:58.550Z,14.05
